PDT,Max TemperatureF,Mean TemperatureF,Min TemperatureF,Max Dew PointF,MeanDew PointF,Min DewpointF,Max Humidity, Mean Humidity, Min Humidity, Max Sea Level PressureIn, Mean Sea Level PressureIn, Min Sea Level PressureIn, Max VisibilityMiles, Mean VisibilityMiles, Min VisibilityMiles, Max Wind SpeedMPH, Mean Wind SpeedMPH, Max Gust SpeedMPH,PrecipitationIn, CloudCover, Events, WindDirDegrees
2013-9-1,87,66,45,48,38,24,71,39,11,29.92,29.86,29.80,10,10,10,23,10,30,0.00,0,,159
2013-9-2,81,64,47,48,41,30,86,49,17,29.91,29.86,29.81,10,10,10,24,8,30,0.00,1,,191
2013-9-3,81,62,43,47,39,30,93,55,17,29.99,29.94,29.89,10,10,9,24,6,29,0.00,0,,187
2013-9-4,81,60,39,48,40,24,93,56,14,30.08,29.99,29.92,10,9,2,21,6,28,0.00,0,,198
2013-9-5,72,57,41,50,44,40,100,69,33,30.11,29.99,29.91,10,9,0,25,6,30,T,2,Fog-Rain-Thunderstorm,264
2013-9-6,74,55,35,48,40,34,100,72,27,30.21,30.14,30.04,10,8,1,13,3,16,0.00,0,,332
2013-9-7,83,65,47,50,43,31,86,54,16,30.06,29.98,29.90,10,10,10,13,4,16,0.00,0,,351
2013-9-8,85,65,44,50,43,35,93,47,17,30.01,29.96,29.90,10,10,10,17,6,23,0.00,0,,343
2013-9-9,85,65,45,46,39,27,82,41,12,30.01,29.94,29.87,10,10,10,12,5,15,0.00,0,,3
2013-9-10,86,66,46,47,41,36,80,44,17,29.96,29.89,29.83,10,10,10,9,3,14,0.00,0,,323
2013-9-11,90,68,46,46,38,25,80,41,11,29.99,29.94,29.90,10,10,10,14,5,17,0.00,0,,321
2013-9-12,86,69,52,53,47,41,77,44,22,29.98,29.92,29.88,10,10,10,14,5,17,0.00,3,,303
2013-9-13,89,70,51,54,46,37,93,46,17,29.93,29.85,29.77,10,10,10,17,5,21,0.00,1,,324
2013-9-14,89,68,46,48,42,36,80,45,16,29.84,29.78,29.70,10,10,10,12,2,14,0.00,0,,135
2013-9-15,82,64,45,49,38,14,82,48,8,29.83,29.75,29.71,10,10,10,29,10,36,0.00,0,,170
2013-9-16,76,59,42,48,43,36,96,62,23,30.01,29.88,29.79,10,10,2,18,5,22,0.00,1,,295
2013-9-17,60,50,40,55,44,38,93,77,57,30.06,29.86,29.73,10,10,6,22,8,26,0.04,5,Rain-Thunderstorm,282
2013-9-18,66,49,31,41,36,32,100,80,31,30.13,30.07,30.00,10,8,0,9,3,13,0.00,1,Fog,159
2013-9-19,78,55,32,42,33,24,96,56,14,30.04,29.94,29.83,10,10,10,8,1,10,0.00,0,,178
2013-9-20,76,54,32,48,35,15,100,61,11,29.84,29.75,29.65,10,9,2,26,9,33,0.05,3,Rain,246
2013-9-21,54,48,41,50,45,39,100,87,66,29.87,29.75,29.67,10,10,2,22,5,28,0.00,6,Rain,245
2013-9-22,57,48,38,46,41,37,93,78,54,30.00,29.92,29.86,10,10,10,17,7,22,0.00,7,,250
2013-9-23,68,57,46,48,45,37,100,74,32,30.05,29.97,29.91,10,10,10,20,7,24,0.00,4,,211
2013-9-24,55,48,40,45,41,36,93,78,54,30.00,29.92,29.85,10,10,5,22,8,26,0.00,7,Rain,280
2013-9-25,47,41,34,37,34,32,89,77,60,29.98,29.89,29.84,10,10,9,20,7,25,0.00,5,Rain,284
2013-9-26,55,42,28,34,31,27,92,68,38,30.14,30.04,29.99,10,10,10,20,7,23,0.00,2,,309
2013-9-27,61,44,26,37,30,24,100,71,33,30.22,30.17,30.10,10,9,1,12,3,14,0.00,1,Fog,202
2013-9-28,66,52,38,38,35,32,85,54,32,30.09,29.95,29.76,10,10,2,28,13,36,0.00,5,,170
2013-9-29,58,54,50,50,46,38,93,74,47,29.83,29.77,29.72,10,10,6,28,14,36,0.02,8,Rain,213
2013-9-30,57,46,35,49,42,35,93,76,47,30.02,29.91,29.71,10,10,3,22,9,29,0.01,5,Rain,296